createdAt,value
2022-11-25T00:01:37.212Z,0.52
2022-11-25T00:04:04.071Z,0.52
2022-11-25T00:06:35.108Z,0.34
2022-11-25T00:09:04.528Z,0.51
2022-11-25T00:11:31.316Z,0.53
2022-11-25T00:13:58.174Z,0.54
2022-11-25T00:16:26.706Z,0.54
2022-11-25T00:18:54.428Z,0.46
2022-11-25T00:21:22.853Z,0.52
2022-11-25T00:23:59.817Z,0.56
2022-11-25T00:26:27.370Z,0.54
2022-11-25T00:28:54.281Z,0.55
2022-11-25T00:31:22.860Z,0.50
2022-11-25T00:33:50.047Z,0.51
2022-11-25T00:36:27.090Z,0.51
2022-11-25T00:38:58.339Z,0.53
2022-11-25T00:41:44.090Z,0.54
2022-11-25T00:44:29.652Z,0.55
2022-11-25T00:46:56.444Z,0.54
2022-11-25T00:49:23.173Z,0.56
2022-11-25T00:51:49.903Z,0.52
2022-11-25T00:54:16.657Z,0.55
2022-11-25T00:56:43.398Z,0.47
2022-11-25T00:59:10.148Z,0.56
2022-11-25T01:01:37.173Z,0.56
2022-11-25T01:04:04.208Z,0.56
2022-11-25T01:06:30.939Z,0.56
2022-11-25T01:08:57.708Z,0.51
2022-11-25T01:11:24.690Z,0.54
2022-11-25T01:13:56.667Z,0.56
2022-11-25T01:16:27.636Z,0.56
2022-11-25T01:18:54.451Z,0.56
2022-11-25T01:21:23.540Z,0.48
2022-11-25T01:23:50.648Z,0.56
2022-11-25T01:26:20.788Z,0.56
2022-11-25T01:28:47.618Z,0.56
2022-11-25T01:31:19.230Z,0.56
2022-11-25T01:33:46.468Z,0.55
2022-11-25T01:36:15.603Z,0.55
2022-11-25T01:38:42.517Z,0.53
2022-11-25T01:41:11.047Z,0.52
2022-11-25T01:43:37.893Z,0.51
2022-11-25T01:46:09.433Z,0.54
2022-11-25T01:48:43.304Z,0.54
2022-11-25T01:51:28.228Z,0.53
2022-11-25T01:53:59.778Z,0.53
2022-11-25T01:56:27.258Z,0.51
2022-11-25T01:58:53.997Z,0.53
2022-11-25T02:01:21.893Z,0.53
2022-11-25T02:03:49.637Z,0.44
2022-11-25T02:06:31.118Z,0.52
2022-11-25T02:09:01.592Z,0.48
2022-11-25T02:11:28.598Z,0.51
2022-11-25T02:13:55.349Z,0.48
2022-11-25T02:16:22.208Z,0.46
2022-11-25T02:18:49.967Z,0.51
2022-11-25T02:21:23.707Z,0.44
2022-11-25T02:24:13.908Z,0.52
2022-11-25T02:26:40.679Z,0.48
2022-11-25T02:29:07.428Z,0.48
2022-11-25T02:31:34.274Z,0.54
2022-11-25T02:34:01.023Z,0.44
2022-11-25T02:36:27.780Z,0.54
2022-11-25T02:38:58.910Z,0.48
2022-11-25T02:41:31.656Z,0.53
2022-11-25T02:43:58.698Z,0.50
2022-11-25T02:46:26.232Z,0.52
2022-11-25T02:49:10.425Z,0.52
2022-11-25T02:51:37.877Z,0.44
2022-11-25T02:54:04.870Z,0.51
2022-11-25T02:56:32.950Z,0.51
2022-11-25T02:58:59.679Z,0.53
2022-11-25T03:01:26.695Z,0.44
2022-11-25T03:03:53.550Z,0.53
2022-11-25T03:06:20.309Z,0.54
2022-11-25T03:08:47.098Z,0.52
2022-11-25T03:11:13.837Z,0.47
2022-11-25T03:13:40.609Z,0.53
2022-11-25T03:16:07.782Z,0.54
2022-11-25T03:18:34.807Z,0.56
2022-11-25T03:21:01.518Z,0.56
2022-11-25T03:23:28.247Z,0.48
2022-11-25T03:25:55.546Z,0.54
2022-11-25T03:28:22.307Z,0.56
2022-11-25T03:30:49.120Z,0.53
2022-11-25T03:33:15.848Z,0.53
2022-11-25T03:35:42.567Z,0.57
2022-11-25T03:38:09.308Z,0.58
2022-11-25T03:40:36.041Z,0.58
2022-11-25T03:43:02.791Z,0.58
2022-11-25T03:45:29.695Z,0.59
2022-11-25T03:47:56.519Z,0.57
2022-11-25T03:50:23.241Z,0.60
2022-11-25T03:52:49.996Z,0.52
2022-11-25T03:55:16.889Z,0.60
2022-11-25T03:57:43.698Z,0.56
2022-11-25T04:00:10.977Z,0.60
2022-11-25T04:02:37.721Z,0.56
2022-11-25T04:05:05.640Z,0.53
2022-11-25T04:07:32.612Z,0.55
2022-11-25T04:09:59.397Z,0.55
2022-11-25T04:12:44.685Z,0.59
2022-11-25T04:15:11.497Z,0.53
2022-11-25T04:17:38.298Z,0.56
2022-11-25T04:20:05.720Z,0.57
2022-11-25T04:22:32.512Z,0.52
2022-11-25T04:24:59.247Z,0.56
2022-11-25T04:27:25.977Z,0.53
2022-11-25T04:29:52.703Z,0.55
2022-11-25T04:32:19.476Z,0.53
2022-11-25T04:34:46.218Z,0.54
2022-11-25T04:37:12.951Z,0.53
2022-11-25T04:39:39.667Z,0.49
2022-11-25T04:42:25.247Z,0.48
2022-11-25T04:45:14.009Z,0.51
2022-11-25T04:47:39.660Z,0.50
2022-11-25T04:50:07.767Z,0.43
2022-11-25T04:52:34.647Z,0.48
2022-11-25T04:55:01.522Z,0.48
2022-11-25T04:57:28.228Z,0.46
2022-11-25T04:59:54.959Z,0.47
2022-11-25T05:02:26.127Z,0.48
2022-11-25T05:04:54.027Z,0.45
2022-11-25T05:07:21.408Z,0.43
2022-11-25T05:09:48.232Z,0.39
2022-11-25T05:12:23.857Z,0.46
2022-11-25T05:14:50.643Z,0.41
2022-11-25T05:17:37.537Z,0.47
2022-11-25T05:20:04.970Z,0.46
2022-11-25T05:22:32.279Z,0.46
2022-11-25T05:24:59.079Z,0.44
2022-11-25T05:27:26.048Z,0.41
2022-11-25T05:29:55.926Z,0.38
2022-11-25T05:32:22.954Z,0.30
2022-11-25T05:34:49.676Z,0.31
2022-11-25T05:37:19.904Z,0.22
2022-11-25T05:39:50.826Z,0.29
2022-11-25T05:42:17.637Z,0.21
2022-11-25T05:44:44.386Z,0.29
2022-11-25T05:47:11.168Z,0.25
2022-11-25T05:49:37.877Z,0.30
2022-11-25T05:52:04.870Z,0.32
2022-11-25T05:54:31.576Z,0.32
2022-11-25T05:56:58.321Z,0.34
2022-11-25T05:59:25.080Z,0.33
2022-11-25T06:01:53.746Z,0.29
2022-11-25T06:04:20.534Z,0.35
2022-11-25T06:06:47.310Z,0.26
2022-11-25T06:09:14.027Z,0.35
2022-11-25T06:11:40.771Z,0.33
2022-11-25T06:14:07.818Z,0.37
2022-11-25T06:16:34.605Z,0.31
2022-11-25T06:19:05.654Z,0.39
2022-11-25T06:21:32.907Z,0.39
2022-11-25T06:23:59.717Z,0.38
2022-11-25T06:26:26.458Z,0.42
2022-11-25T06:28:53.920Z,0.43
2022-11-25T06:31:21.953Z,0.42
2022-11-25T06:33:49.811Z,0.45
2022-11-25T06:36:19.728Z,0.45
2022-11-25T06:38:53.975Z,0.39
2022-11-25T06:41:21.942Z,0.47
2022-11-25T06:43:48.720Z,0.44
2022-11-25T06:46:22.811Z,0.50
2022-11-25T06:48:51.545Z,0.52
2022-11-25T06:51:18.401Z,0.55
2022-11-25T06:53:45.128Z,0.51
2022-11-25T06:56:19.588Z,0.58
2022-11-25T06:58:46.648Z,0.62
2022-11-25T07:01:20.859Z,0.62
2022-11-25T07:03:48.710Z,0.57
2022-11-25T07:06:16.115Z,0.67
2022-11-25T07:08:43.001Z,0.71
2022-11-25T07:11:29.283Z,0.73
2022-11-25T07:14:00.639Z,0.75
2022-11-25T07:16:27.757Z,0.77
2022-11-25T07:18:54.592Z,0.76
2022-11-25T07:21:24.098Z,0.82
2022-11-25T07:23:51.430Z,0.85
2022-11-25T07:26:20.068Z,0.88
2022-11-25T07:28:46.819Z,0.88
2022-11-25T07:31:32.816Z,0.95
2022-11-25T07:34:06.849Z,1.00
2022-11-25T07:36:34.172Z,1.03
2022-11-25T07:39:01.840Z,1.06
2022-11-25T07:41:28.713Z,1.08
2022-11-25T07:43:57.280Z,1.13
2022-11-25T07:46:31.594Z,1.17
2022-11-25T07:49:00.155Z,1.21
2022-11-25T07:51:31.923Z,1.18
2022-11-25T07:53:59.235Z,1.25
2022-11-25T07:56:26.152Z,1.31
2022-11-25T07:58:52.913Z,1.35
2022-11-25T08:01:19.969Z,1.34
2022-11-25T08:03:47.867Z,1.45
2022-11-25T08:06:19.782Z,1.41
2022-11-25T08:08:46.598Z,1.52
2022-11-25T08:11:24.188Z,1.56
2022-11-25T08:13:50.968Z,1.48
2022-11-25T08:16:19.223Z,1.65
2022-11-25T08:18:46.209Z,1.72
2022-11-25T08:21:13.817Z,1.71
2022-11-25T08:23:41.393Z,1.78
2022-11-25T08:26:10.390Z,1.77
2022-11-25T08:28:37.257Z,1.88
2022-11-25T08:31:13.820Z,1.92
2022-11-25T08:33:40.608Z,1.96
2022-11-25T08:36:07.903Z,1.93
2022-11-25T08:38:34.716Z,2.04
2022-11-25T08:41:01.530Z,2.03
2022-11-25T08:43:29.712Z,2.11
2022-11-25T08:45:56.725Z,2.06
2022-11-25T08:48:23.491Z,2.18
2022-11-25T08:50:52.156Z,2.20
2022-11-25T08:53:19.052Z,2.22
2022-11-25T08:55:45.840Z,2.27
2022-11-25T08:58:13.298Z,2.33
2022-11-25T09:00:43.732Z,2.37
2022-11-25T09:03:10.573Z,2.41
2022-11-25T09:05:41.693Z,2.43
2022-11-25T09:08:08.881Z,2.46
2022-11-25T09:10:35.759Z,2.48
2022-11-25T09:13:02.519Z,2.46
2022-11-25T09:15:29.384Z,2.46
2022-11-25T09:18:04.235Z,2.42
2022-11-25T09:20:31.988Z,2.49
2022-11-25T09:23:02.267Z,2.55
2022-11-25T09:25:29.428Z,2.58
2022-11-25T09:27:56.461Z,2.58
2022-11-25T09:30:23.951Z,2.55
2022-11-25T09:32:51.939Z,2.54
2022-11-25T09:35:20.012Z,2.52
2022-11-25T09:37:46.862Z,2.50
2022-11-25T09:40:36.538Z,2.51
2022-11-25T09:43:21.710Z,2.50
2022-11-25T09:46:10.998Z,2.43
2022-11-25T09:48:56.999Z,2.42
2022-11-25T09:51:25.889Z,2.44
2022-11-25T09:53:54.447Z,2.37
2022-11-25T09:56:39.718Z,2.44
2022-11-25T09:59:08.099Z,2.41
2022-11-25T10:01:35.831Z,2.45
2022-11-25T10:04:05.430Z,2.45
2022-11-25T10:06:43.644Z,2.49
2022-11-25T10:09:14.967Z,2.49
2022-11-25T10:11:54.956Z,2.50
2022-11-25T10:14:24.481Z,2.52
2022-11-25T10:16:55.519Z,2.53
2022-11-25T10:19:37.203Z,2.53
2022-11-25T10:22:27.468Z,2.55
2022-11-25T10:24:58.754Z,2.48
2022-11-25T10:27:59.297Z,2.60
2022-11-25T10:30:40.760Z,2.64
2022-11-25T10:33:31.037Z,2.65
2022-11-25T10:36:10.837Z,2.66
2022-11-25T10:38:45.592Z,2.67
2022-11-25T10:41:16.560Z,2.66
2022-11-25T10:43:45.993Z,2.70
2022-11-25T10:47:13.051Z,2.72
2022-11-25T10:49:48.623Z,2.67
2022-11-25T10:52:15.567Z,2.73
2022-11-25T10:54:42.810Z,2.75
2022-11-25T10:57:21.910Z,2.81
2022-11-25T10:59:59.123Z,2.81
2022-11-25T11:02:30.850Z,2.80
2022-11-25T11:05:05.162Z,2.83
2022-11-25T11:07:33.968Z,2.83
2022-11-25T11:10:26.846Z,2.80
2022-11-25T11:12:59.096Z,2.79
2022-11-25T11:15:28.816Z,2.80
2022-11-25T11:17:56.308Z,2.75
2022-11-25T11:20:30.085Z,2.78
2022-11-25T11:23:08.897Z,2.76
2022-11-25T11:25:42.991Z,2.75
2022-11-25T11:28:33.329Z,2.78
2022-11-25T11:31:24.491Z,2.78
2022-11-25T11:34:03.400Z,2.79
2022-11-25T11:36:30.103Z,2.80
2022-11-25T11:39:32.526Z,2.79
2022-11-25T11:42:08.239Z,2.81
2022-11-25T11:44:41.054Z,2.82
2022-11-25T11:47:21.366Z,2.72
2022-11-25T11:49:55.235Z,2.76
2022-11-25T11:52:50.723Z,2.70
2022-11-25T11:56:11.787Z,2.73
2022-11-25T11:58:57.623Z,2.70
2022-11-25T12:01:44.555Z,2.69
2022-11-25T12:04:34.790Z,2.59
2022-11-25T12:07:12.316Z,2.62
2022-11-25T12:09:52.857Z,2.59
2022-11-25T12:12:19.678Z,2.56
2022-11-25T12:14:51.166Z,2.51
2022-11-25T12:17:27.535Z,2.51
2022-11-25T12:20:01.818Z,2.40
2022-11-25T12:22:37.961Z,2.42
2022-11-25T12:25:06.874Z,2.41
2022-11-25T12:27:36.675Z,2.37
2022-11-25T12:30:19.866Z,2.39
2022-11-25T12:32:49.155Z,2.38
2022-11-25T12:35:37.749Z,2.36
2022-11-25T12:38:05.939Z,2.33
2022-11-25T12:40:49.619Z,2.29
2022-11-25T12:43:38.218Z,2.25
2022-11-25T12:46:19.215Z,2.22
2022-11-25T12:48:46.017Z,2.18
2022-11-25T12:51:20.159Z,2.14
2022-11-25T12:53:55.010Z,2.17
2022-11-25T12:56:39.338Z,2.15
2022-11-25T12:59:26.059Z,2.12
2022-11-25T13:02:02.559Z,2.11
2022-11-25T13:05:18.577Z,2.12
2022-11-25T13:08:07.920Z,2.10
2022-11-25T13:11:08.747Z,2.08
2022-11-25T13:13:53.880Z,2.08
2022-11-25T13:16:21.511Z,2.04
2022-11-25T13:18:48.763Z,2.03
2022-11-25T13:21:16.298Z,2.07
2022-11-25T13:23:52.228Z,1.97
2022-11-25T13:26:38.427Z,2.04
2022-11-25T13:29:17.442Z,2.04
2022-11-25T13:32:05.157Z,2.02
2022-11-25T13:34:35.851Z,2.00
2022-11-25T13:37:23.330Z,1.98
2022-11-25T13:39:50.069Z,1.96
2022-11-25T13:42:25.985Z,1.96
2022-11-25T13:44:57.109Z,1.90
2022-11-25T13:47:31.457Z,1.89
2022-11-25T13:50:01.258Z,1.91
2022-11-25T13:52:32.649Z,1.90
2022-11-25T13:54:59.400Z,1.87
2022-11-25T13:57:35.600Z,1.86
2022-11-25T14:00:07.008Z,1.83
2022-11-25T14:02:36.617Z,1.79
2022-11-25T14:05:06.412Z,1.79
2022-11-25T14:07:54.069Z,1.75
2022-11-25T14:10:46.031Z,1.72
2022-11-25T14:13:18.741Z,1.68
2022-11-25T14:16:03.804Z,1.62
2022-11-25T14:22:01.901Z,1.57
2022-11-25T14:24:37.971Z,1.54
2022-11-25T14:27:05.002Z,1.52
2022-11-25T14:30:09.049Z,1.50
2022-11-25T14:33:08.154Z,1.49
2022-11-25T14:35:43.509Z,1.42
2022-11-25T14:38:38.246Z,1.42
2022-11-25T14:41:28.816Z,1.43
2022-11-25T14:44:01.970Z,1.42
2022-11-25T14:46:28.732Z,1.34
2022-11-25T14:49:00.190Z,1.30
2022-11-25T14:51:37.222Z,1.33
2022-11-25T14:54:07.070Z,1.32
2022-11-25T14:56:35.071Z,1.29
2022-11-25T14:59:01.832Z,1.26
2022-11-25T15:01:30.007Z,1.17
2022-11-25T15:04:08.019Z,1.21
2022-11-25T15:06:39.500Z,1.15
2022-11-25T15:09:37.183Z,1.18
2022-11-25T15:12:08.370Z,1.16
2022-11-25T15:14:37.544Z,1.13
2022-11-25T15:17:08.308Z,1.12
2022-11-25T15:19:36.275Z,1.05
2022-11-25T15:22:22.537Z,1.13
2022-11-25T15:24:54.999Z,1.05
2022-11-25T15:27:27.166Z,1.06
2022-11-25T15:29:54.809Z,1.10
2022-11-25T15:32:29.383Z,1.10
2022-11-25T15:34:57.700Z,1.13
2022-11-25T15:37:24.449Z,1.12
2022-11-25T15:40:11.423Z,1.11
2022-11-25T15:42:38.237Z,1.11
2022-11-25T15:45:09.408Z,1.10
2022-11-25T15:47:36.261Z,1.05
2022-11-25T15:50:16.848Z,0.97
2022-11-25T15:52:46.264Z,1.00
2022-11-25T15:55:33.188Z,1.08
2022-11-25T15:58:08.198Z,1.06
2022-11-25T16:00:34.943Z,1.07
2022-11-25T16:03:02.712Z,1.07
2022-11-25T16:05:31.986Z,1.03
2022-11-25T16:08:00.630Z,1.05
2022-11-25T16:10:34.012Z,1.05
2022-11-25T16:13:23.027Z,1.04
2022-11-25T16:15:53.973Z,1.04
2022-11-25T16:18:39.837Z,1.01
2022-11-25T16:21:17.510Z,0.93
2022-11-25T16:23:56.805Z,0.95
2022-11-25T16:27:02.722Z,0.92
2022-11-25T16:29:35.084Z,0.90
2022-11-25T16:32:10.390Z,0.84
2022-11-25T16:34:37.542Z,0.83
2022-11-25T16:37:04.537Z,0.77
2022-11-25T16:39:31.583Z,0.72
2022-11-25T16:42:01.624Z,0.65
2022-11-25T16:44:28.817Z,0.52
2022-11-25T16:46:55.605Z,0.55
2022-11-25T16:49:22.701Z,0.50
2022-11-25T16:51:50.839Z,0.29
2022-11-25T16:54:19.214Z,0.47
2022-11-25T16:56:47.206Z,0.45
2022-11-25T16:59:19.255Z,0.46
2022-11-25T17:01:46.296Z,0.46
2022-11-25T17:04:13.428Z,0.47
2022-11-25T17:06:41.431Z,0.50
2022-11-25T17:09:08.486Z,0.48
2022-11-25T17:11:46.447Z,0.46
2022-11-25T17:14:32.705Z,0.50
2022-11-25T17:17:00.044Z,0.47
2022-11-25T17:19:26.976Z,0.47
2022-11-25T17:21:53.754Z,0.50
2022-11-25T17:24:24.632Z,0.44
2022-11-25T17:26:57.537Z,0.40
2022-11-25T17:29:30.898Z,0.39
2022-11-25T17:31:58.785Z,0.47
2022-11-25T17:34:25.650Z,0.41
2022-11-25T17:36:52.430Z,0.46
2022-11-25T17:39:19.194Z,0.45
2022-11-25T17:41:47.897Z,0.40
2022-11-25T17:44:28.577Z,0.43
2022-11-25T17:46:56.701Z,0.40
2022-11-25T17:49:23.585Z,0.49
2022-11-25T17:51:50.400Z,0.38
2022-11-25T17:54:17.319Z,0.47
2022-11-25T17:56:50.568Z,0.45
2022-11-25T17:59:30.321Z,0.41
2022-11-25T18:01:59.257Z,0.38
2022-11-25T18:04:27.945Z,0.37
2022-11-25T18:06:54.702Z,0.30
2022-11-25T18:09:21.542Z,0.36
2022-11-25T18:11:54.949Z,0.36
2022-11-25T18:14:32.346Z,0.34
2022-11-25T18:17:03.134Z,0.30
2022-11-25T18:19:29.951Z,0.31
2022-11-25T18:22:00.014Z,0.28
2022-11-25T18:24:26.807Z,0.23
2022-11-25T18:26:53.639Z,0.20
2022-11-25T18:29:25.785Z,0.14
2022-11-25T18:31:59.610Z,0.08
2022-11-25T18:34:26.908Z,0.11
2022-11-25T18:36:53.880Z,0.09
2022-11-25T18:39:20.710Z,-0.09
2022-11-25T18:41:47.899Z,0.04
2022-11-25T18:44:29.050Z,-0.04
2022-11-25T18:46:55.841Z,-0.02
2022-11-25T18:49:23.840Z,-0.14
2022-11-25T18:51:50.757Z,-0.14
2022-11-25T18:54:17.557Z,-0.19
2022-11-25T18:56:44.349Z,-0.29
2022-11-25T18:59:15.186Z,-0.36
2022-11-25T19:01:46.763Z,-0.52
2022-11-25T19:04:16.476Z,-0.52
2022-11-25T19:06:43.987Z,-0.59
2022-11-25T19:09:10.855Z,-0.65
2022-11-25T19:11:42.597Z,-0.62
2022-11-25T19:14:14.966Z,-0.68
2022-11-25T19:16:41.804Z,-0.73
2022-11-25T19:19:13.497Z,-0.80
2022-11-25T19:21:40.299Z,-0.82
2022-11-25T19:24:14.176Z,-0.81
2022-11-25T19:26:43.385Z,-0.84
2022-11-25T19:29:11.952Z,-0.87
2022-11-25T19:31:38.715Z,-0.83
2022-11-25T19:34:05.496Z,-0.84
2022-11-25T19:36:35.412Z,-0.84
2022-11-25T19:39:02.249Z,-0.86
2022-11-25T19:41:29.063Z,-0.82
2022-11-25T19:43:55.899Z,-0.80
2022-11-25T19:46:37.119Z,-0.82
2022-11-25T19:49:17.384Z,-0.72
2022-11-25T19:51:44.264Z,-0.64
2022-11-25T19:54:15.480Z,-0.67
2022-11-25T19:56:45.021Z,-0.55
2022-11-25T19:59:11.909Z,-0.57
2022-11-25T20:01:43.632Z,-0.51
2022-11-25T20:04:16.753Z,-0.38
2022-11-25T20:06:43.620Z,-0.32
2022-11-25T20:09:11.752Z,-0.29
2022-11-25T20:11:38.665Z,-0.23
2022-11-25T20:14:05.676Z,-0.16
2022-11-25T20:16:36.003Z,-0.16
2022-11-25T20:19:03.151Z,-0.10
2022-11-25T20:21:34.738Z,-0.07
2022-11-25T20:24:01.957Z,-0.04
2022-11-25T20:26:30.921Z,-0.04
2022-11-25T20:28:57.827Z,-0.01
2022-11-25T20:31:30.186Z,-0.02
2022-11-25T20:33:57.443Z,-0.03
2022-11-25T20:36:28.212Z,-0.08
2022-11-25T20:38:56.153Z,-0.17
2022-11-25T20:41:27.719Z,-0.21
2022-11-25T20:43:54.668Z,-0.43
2022-11-25T20:46:27.064Z,-0.53
2022-11-25T20:48:54.810Z,-0.75
2022-11-25T20:51:22.110Z,-0.84
2022-11-25T20:53:54.268Z,-1.07
2022-11-25T20:56:22.060Z,-1.12
2022-11-25T20:58:48.826Z,-1.31
2022-11-25T21:01:16.073Z,-1.35
2022-11-25T21:03:43.460Z,-1.50
2022-11-25T21:06:21.621Z,-1.57
2022-11-25T21:08:49.830Z,-1.74
2022-11-25T21:11:17.254Z,-1.77
2022-11-25T21:13:44.041Z,-1.86
2022-11-25T21:16:10.876Z,-1.82
2022-11-25T21:18:37.748Z,-1.83
2022-11-25T21:21:04.654Z,-1.76
2022-11-25T21:23:33.729Z,-1.72
2022-11-25T21:26:12.770Z,-1.66
2022-11-25T21:28:41.809Z,-1.67
2022-11-25T21:31:21.023Z,-1.55
2022-11-25T21:33:48.016Z,-1.42
2022-11-25T21:36:20.591Z,-1.35
2022-11-25T21:38:47.819Z,-1.28
2022-11-25T21:41:14.583Z,-1.31
2022-11-25T21:43:46.789Z,-1.24
2022-11-25T21:46:25.528Z,-1.24
2022-11-25T21:48:52.487Z,-1.23
2022-11-25T21:51:24.446Z,-1.26
2022-11-25T21:53:52.068Z,-1.24
2022-11-25T21:56:24.649Z,-1.22
2022-11-25T21:58:51.427Z,-1.26
2022-11-25T22:01:18.449Z,-1.22
2022-11-25T22:03:45.313Z,-1.20
2022-11-25T22:06:20.667Z,-1.20
2022-11-25T22:08:47.480Z,-1.17
2022-11-25T22:11:16.540Z,-1.14
2022-11-25T22:13:43.381Z,-1.12
2022-11-25T22:16:14.720Z,-1.15
2022-11-25T22:18:41.739Z,-1.21
2022-11-25T22:21:13.385Z,-1.13
2022-11-25T22:23:40.719Z,-1.10
2022-11-25T22:26:08.000Z,-1.08
2022-11-25T22:28:34.761Z,-1.06
2022-11-25T22:31:02.483Z,-1.01
2022-11-25T22:33:34.280Z,-1.09
2022-11-25T22:36:01.194Z,-0.94
2022-11-25T22:38:28.678Z,-0.96
2022-11-25T22:41:02.762Z,-1.02
2022-11-25T22:43:38.096Z,-0.89
2022-11-25T22:46:05.015Z,-0.91
2022-11-25T22:48:36.208Z,-0.90
2022-11-25T22:51:03.032Z,-0.87
2022-11-25T22:53:29.823Z,-0.81
2022-11-25T22:55:59.299Z,-0.80
2022-11-25T22:58:27.041Z,-0.79
2022-11-25T23:00:54.265Z,-0.79
2022-11-25T23:03:34.023Z,-0.79
2022-11-25T23:06:03.290Z,-0.81
2022-11-25T23:08:31.719Z,-0.75
2022-11-25T23:10:58.680Z,-0.73
2022-11-25T23:13:25.496Z,-0.73
2022-11-25T23:15:54.217Z,-0.74
2022-11-25T23:18:26.555Z,-0.82
2022-11-25T23:20:53.679Z,-0.76
2022-11-25T23:23:22.499Z,-0.77
2022-11-25T23:25:49.322Z,-0.76
2022-11-25T23:28:16.486Z,-0.80
2022-11-25T23:30:52.635Z,-0.70
2022-11-25T23:33:32.618Z,-0.67
2022-11-25T23:36:00.874Z,-0.70
2022-11-25T23:38:30.370Z,-0.61
2022-11-25T23:40:57.133Z,-0.60
2022-11-25T23:43:23.862Z,-0.59
2022-11-25T23:45:54.935Z,-0.56
2022-11-25T23:48:24.592Z,-0.53
2022-11-25T23:50:51.441Z,-0.55
2022-11-25T23:53:38.174Z,-0.53
2022-11-25T23:56:05.302Z,-0.47
2022-11-25T23:58:32.234Z,-0.47
